createdAt,value
2022-12-03T00:01:55.735Z,45.15
2022-12-03T00:04:23.419Z,42.92
2022-12-03T00:06:50.784Z,47.50
2022-12-03T00:09:17.947Z,42.90
2022-12-03T00:11:45.151Z,42.63
2022-12-03T00:14:12.352Z,41.42
2022-12-03T00:16:39.485Z,42.22
2022-12-03T00:19:07.748Z,42.10
2022-12-03T00:21:35.050Z,39.78
2022-12-03T00:24:02.230Z,41.22
2022-12-03T00:26:29.388Z,38.33
2022-12-03T00:28:57.722Z,35.90
2022-12-03T00:31:25.448Z,46.92
2022-12-03T00:33:52.731Z,41.20
2022-12-03T00:36:20.351Z,39.97
2022-12-03T00:38:47.546Z,43.92
2022-12-03T00:41:14.687Z,41.88
2022-12-03T00:43:41.872Z,36.45
2022-12-03T00:46:09.055Z,42.33
2022-12-03T00:48:36.251Z,40.38
2022-12-03T00:51:03.641Z,41.85
2022-12-03T00:53:30.770Z,40.10
2022-12-03T00:55:57.910Z,38.97
2022-12-03T00:58:25.079Z,40.55
2022-12-03T01:00:52.232Z,37.25
2022-12-03T01:03:19.415Z,39.03
2022-12-03T01:05:46.547Z,43.67
2022-12-03T01:08:14.272Z,37.70
2022-12-03T01:10:41.483Z,36.80
2022-12-03T01:13:08.665Z,39.15
2022-12-03T01:15:35.851Z,40.70
2022-12-03T01:18:03.195Z,40.97
2022-12-03T01:20:30.367Z,42.22
2022-12-03T01:22:57.491Z,43.45
2022-12-03T01:25:24.749Z,40.17
2022-12-03T01:27:51.956Z,41.80
2022-12-03T01:30:19.184Z,37.65
2022-12-03T01:32:46.330Z,37.22
2022-12-03T01:35:13.476Z,39.10
2022-12-03T01:37:40.623Z,41.15
2022-12-03T01:40:08.571Z,38.63
2022-12-03T01:42:37.520Z,37.15
2022-12-03T01:45:04.964Z,36.33
2022-12-03T01:47:33.886Z,40.90
2022-12-03T01:50:03.503Z,41.08
2022-12-03T01:52:32.994Z,39.33
2022-12-03T01:55:01.309Z,42.20
2022-12-03T01:57:28.443Z,38.40
2022-12-03T01:59:56.943Z,38.13
2022-12-03T02:02:25.920Z,42.10
2022-12-03T02:04:53.993Z,36.75
2022-12-03T02:07:23.087Z,40.25
2022-12-03T02:09:50.263Z,38.22
2022-12-03T02:12:19.316Z,37.40
2022-12-03T02:14:46.718Z,40.40
2022-12-03T02:17:14.036Z,38.85
2022-12-03T02:19:41.187Z,43.70
2022-12-03T02:22:17.397Z,38.10
2022-12-03T02:24:50.063Z,38.65
2022-12-03T02:27:17.344Z,42.13
2022-12-03T02:29:44.595Z,45.53
2022-12-03T02:32:11.783Z,40.13
2022-12-03T02:34:43.200Z,46.28
2022-12-03T02:37:16.432Z,40.13
2022-12-03T02:39:45.296Z,38.40
2022-12-03T02:42:31.243Z,44.08
2022-12-03T02:45:05.059Z,43.97
2022-12-03T02:47:33.495Z,44.40
2022-12-03T02:50:00.727Z,48.08
2022-12-03T02:52:27.917Z,47.58
2022-12-03T02:54:55.371Z,42.92
2022-12-03T02:57:22.891Z,46.10
2022-12-03T02:59:50.034Z,43.65
2022-12-03T03:02:17.367Z,49.92
2022-12-03T03:04:45.130Z,44.88
2022-12-03T03:07:12.403Z,46.70
2022-12-03T03:09:39.699Z,43.78
2022-12-03T03:12:07.051Z,47.30
2022-12-03T03:14:34.319Z,49.78
2022-12-03T03:17:01.595Z,46.28
2022-12-03T03:19:29.725Z,44.50
2022-12-03T03:21:56.932Z,43.25
2022-12-03T03:24:24.076Z,42.33
2022-12-03T03:26:51.455Z,43.63
2022-12-03T03:29:18.694Z,40.22
2022-12-03T03:31:46.613Z,41.05
2022-12-03T03:34:14.415Z,40.58
2022-12-03T03:36:41.701Z,39.95
2022-12-03T03:39:08.995Z,41.60
2022-12-03T03:41:36.391Z,43.88
2022-12-03T03:44:04.761Z,42.58
2022-12-03T03:46:33.568Z,41.58
2022-12-03T03:49:00.930Z,42.35
2022-12-03T03:51:28.345Z,39.38
2022-12-03T03:53:55.711Z,38.17
2022-12-03T03:56:23.283Z,40.85
2022-12-03T03:58:50.549Z,39.55
2022-12-03T04:01:18.001Z,36.90
2022-12-03T04:03:45.321Z,36.13
2022-12-03T04:06:12.607Z,36.42
2022-12-03T04:08:39.762Z,39.60
2022-12-03T04:11:26.258Z,31.38
2022-12-03T04:13:53.441Z,34.83
2022-12-03T04:16:20.628Z,35.60
2022-12-03T04:18:47.838Z,39.90
2022-12-03T04:21:34.748Z,33.83
2022-12-03T04:24:02.047Z,40.05
2022-12-03T04:26:48.285Z,30.55
2022-12-03T04:29:15.634Z,37.92
2022-12-03T04:32:01.886Z,35.42
2022-12-03T04:34:47.820Z,37.70
2022-12-03T04:37:15.010Z,43.17
2022-12-03T04:39:42.290Z,37.85
2022-12-03T04:42:09.464Z,36.25
2022-12-03T04:44:36.762Z,38.35
2022-12-03T04:47:06.695Z,36.25
2022-12-03T04:49:34.404Z,39.47
2022-12-03T04:52:01.578Z,40.22
2022-12-03T04:54:29.205Z,41.17
2022-12-03T04:56:56.651Z,38.92
2022-12-03T04:59:23.846Z,43.63
2022-12-03T05:01:51.393Z,36.88
2022-12-03T05:04:18.771Z,38.70
2022-12-03T05:06:45.940Z,37.40
2022-12-03T05:09:13.655Z,35.83
2022-12-03T05:11:41.135Z,40.72
2022-12-03T05:14:08.339Z,42.03
2022-12-03T05:16:36.016Z,38.97
2022-12-03T05:19:03.563Z,39.92
2022-12-03T05:21:30.685Z,39.50
2022-12-03T05:23:57.836Z,43.33
2022-12-03T05:26:25.008Z,43.33
2022-12-03T05:28:52.167Z,39.30
2022-12-03T05:31:19.422Z,46.55
2022-12-03T05:33:46.683Z,42.80
2022-12-03T05:36:13.867Z,48.75
2022-12-03T05:38:41.040Z,44.10
2022-12-03T05:41:28.146Z,40.80
2022-12-03T05:43:55.530Z,42.80
2022-12-03T05:46:22.991Z,47.25
2022-12-03T05:48:50.259Z,39.03
2022-12-03T05:51:17.385Z,42.53
2022-12-03T05:53:44.507Z,40.35
2022-12-03T05:56:11.680Z,37.70
2022-12-03T05:58:39.080Z,38.00
2022-12-03T06:01:06.300Z,48.92
2022-12-03T06:03:33.625Z,40.63
2022-12-03T06:06:01.009Z,43.00
2022-12-03T06:08:28.176Z,41.28
2022-12-03T06:10:55.323Z,41.58
2022-12-03T06:13:22.458Z,41.88
2022-12-03T06:15:49.646Z,42.95
2022-12-03T06:18:16.838Z,38.45
2022-12-03T06:20:43.983Z,46.67
2022-12-03T06:23:11.102Z,52.22
2022-12-03T06:25:38.279Z,50.35
2022-12-03T06:28:06.140Z,41.50
2022-12-03T06:30:34.294Z,43.42
2022-12-03T06:33:01.469Z,41.67
2022-12-03T06:35:28.600Z,47.22
2022-12-03T06:37:55.827Z,40.33
2022-12-03T06:40:24.474Z,43.80
2022-12-03T06:42:52.150Z,41.45
2022-12-03T06:45:19.360Z,39.95
2022-12-03T06:47:46.562Z,38.30
2022-12-03T06:50:14.125Z,47.67
2022-12-03T06:52:41.271Z,47.30
2022-12-03T06:55:08.660Z,43.50
2022-12-03T06:57:35.835Z,38.90
2022-12-03T07:00:03.502Z,45.38
2022-12-03T07:02:30.866Z,41.08
2022-12-03T07:04:58.317Z,46.67
2022-12-03T07:07:25.634Z,44.55
2022-12-03T07:09:52.853Z,41.38
2022-12-03T07:12:20.083Z,41.97
2022-12-03T07:14:47.212Z,44.60
2022-12-03T07:17:14.399Z,43.92
2022-12-03T07:19:41.591Z,48.85
2022-12-03T07:22:08.708Z,50.28
2022-12-03T07:24:35.887Z,47.17
2022-12-03T07:27:03.046Z,45.03
2022-12-03T07:29:30.232Z,44.95
2022-12-03T07:31:57.472Z,48.83
2022-12-03T07:34:24.627Z,48.05
2022-12-03T07:36:51.843Z,49.47
2022-12-03T07:39:18.993Z,44.67
2022-12-03T07:41:46.126Z,52.20
2022-12-03T07:44:14.811Z,56.42
2022-12-03T07:46:42.211Z,49.42
2022-12-03T07:49:09.640Z,53.20
2022-12-03T07:51:36.892Z,56.17
2022-12-03T07:54:04.120Z,61.65
2022-12-03T07:56:31.398Z,49.17
2022-12-03T07:58:58.904Z,59.20
2022-12-03T08:01:26.179Z,56.80
2022-12-03T08:03:53.442Z,60.20
2022-12-03T08:06:20.560Z,50.28
2022-12-03T08:08:47.767Z,56.55
2022-12-03T08:11:15.060Z,62.83
2022-12-03T08:13:42.258Z,56.17
2022-12-03T08:16:27.803Z,59.88
2022-12-03T08:18:57.539Z,56.90
2022-12-03T08:21:24.723Z,50.38
2022-12-03T08:23:51.889Z,55.22
2022-12-03T08:26:19.020Z,58.90
2022-12-03T08:28:46.183Z,63.33
2022-12-03T08:31:19.610Z,57.05
2022-12-03T08:33:51.243Z,58.80
2022-12-03T08:36:18.397Z,55.05
2022-12-03T08:38:47.775Z,58.08
2022-12-03T08:41:15.591Z,52.05
2022-12-03T08:43:43.977Z,61.63
2022-12-03T08:46:13.993Z,60.58
2022-12-03T08:48:47.052Z,58.20
2022-12-03T08:51:20.943Z,59.88
2022-12-03T08:53:55.432Z,61.33
2022-12-03T08:56:28.182Z,61.42
2022-12-03T08:59:21.525Z,61.00
2022-12-03T09:01:49.094Z,58.28
2022-12-03T09:04:22.462Z,64.07
2022-12-03T09:06:49.729Z,62.60
2022-12-03T09:09:16.924Z,65.05
2022-12-03T09:11:44.363Z,62.30
2022-12-03T09:14:18.078Z,60.22
2022-12-03T09:16:45.934Z,63.58
2022-12-03T09:19:13.195Z,63.97
2022-12-03T09:21:40.368Z,62.80
2022-12-03T09:24:07.616Z,66.55
2022-12-03T09:26:34.767Z,67.75
2022-12-03T09:29:01.908Z,64.07
2022-12-03T09:31:29.159Z,62.80
2022-12-03T09:33:56.350Z,66.60
2022-12-03T09:36:23.502Z,62.63
2022-12-03T09:38:51.404Z,64.13
2022-12-03T09:41:18.561Z,65.90
2022-12-03T09:46:33.478Z,60.25
2022-12-03T09:49:01.342Z,63.92
2022-12-03T09:51:31.532Z,67.72
2022-12-03T09:53:59.922Z,58.70
2022-12-03T09:56:27.320Z,58.83
2022-12-03T09:58:54.875Z,66.65
2022-12-03T10:01:22.543Z,74.45
2022-12-03T10:03:53.309Z,65.22
2022-12-03T10:06:22.321Z,67.05
2022-12-03T10:08:50.909Z,69.50
2022-12-03T10:11:19.007Z,64.38
2022-12-03T10:13:46.458Z,70.28
2022-12-03T10:16:15.926Z,68.72
2022-12-03T10:18:44.967Z,64.65
2022-12-03T10:21:24.798Z,68.70
2022-12-03T10:24:11.878Z,54.08
2022-12-03T10:26:40.747Z,64.50
2022-12-03T10:29:25.854Z,61.08
2022-12-03T10:32:01.546Z,58.50
2022-12-03T10:34:33.578Z,63.10
2022-12-03T10:37:21.176Z,60.03
2022-12-03T10:39:56.587Z,56.30
2022-12-03T10:42:24.586Z,57.70
2022-12-03T10:45:07.035Z,61.72
2022-12-03T10:47:34.303Z,61.47
2022-12-03T10:50:06.374Z,53.28
2022-12-03T10:52:33.543Z,56.33
2022-12-03T10:55:00.723Z,60.92
2022-12-03T10:57:27.879Z,58.67
2022-12-03T10:59:55.096Z,58.72
2022-12-03T11:02:23.458Z,55.83
2022-12-03T11:04:51.578Z,59.40
2022-12-03T11:07:20.693Z,54.42
2022-12-03T11:09:49.038Z,59.08
2022-12-03T11:12:20.852Z,56.60
2022-12-03T11:14:52.035Z,58.45
2022-12-03T11:17:38.076Z,48.45
2022-12-03T11:20:05.650Z,54.22
2022-12-03T11:22:40.485Z,55.17
2022-12-03T11:25:28.921Z,59.85
2022-12-03T11:28:14.455Z,51.22
2022-12-03T11:33:21.710Z,51.55
2022-12-03T11:36:09.168Z,55.35
2022-12-03T11:38:47.338Z,53.80
2022-12-03T11:41:19.486Z,62.13
2022-12-03T11:43:52.544Z,51.75
2022-12-03T11:46:19.689Z,58.10
2022-12-03T11:48:47.296Z,49.30
2022-12-03T11:51:15.496Z,55.20
2022-12-03T11:53:43.019Z,54.78
2022-12-03T11:56:18.363Z,52.95
2022-12-03T11:58:46.410Z,57.55
2022-12-03T12:01:14.126Z,51.05
2022-12-03T12:03:49.516Z,53.58
2022-12-03T12:06:18.818Z,52.90
2022-12-03T12:08:52.097Z,57.05
2022-12-03T12:11:20.471Z,56.58
2022-12-03T12:13:47.571Z,55.00
2022-12-03T12:16:34.712Z,57.08
2022-12-03T12:19:21.990Z,51.65
2022-12-03T12:21:50.087Z,56.58
2022-12-03T12:24:29.524Z,53.83
2022-12-03T12:26:57.558Z,52.00
2022-12-03T12:29:24.806Z,53.05
2022-12-03T12:31:54.322Z,51.15
2022-12-03T12:34:21.572Z,54.65
2022-12-03T12:36:48.721Z,53.75
2022-12-03T12:39:16.808Z,49.15
2022-12-03T12:41:48.483Z,51.05
2022-12-03T12:44:15.623Z,56.25
2022-12-03T12:46:48.415Z,50.33
2022-12-03T12:49:16.155Z,52.35
2022-12-03T12:51:46.980Z,50.65
2022-12-03T12:54:15.063Z,48.92
2022-12-03T12:56:44.470Z,51.78
2022-12-03T12:59:16.373Z,48.40
2022-12-03T13:01:44.829Z,65.30
2022-12-03T13:04:13.313Z,51.50
2022-12-03T13:06:40.617Z,49.65
2022-12-03T13:09:24.164Z,54.70
2022-12-03T13:11:58.601Z,53.35
2022-12-03T13:14:26.919Z,52.63
2022-12-03T13:16:56.388Z,51.63
2022-12-03T13:19:23.636Z,52.15
2022-12-03T13:21:51.578Z,51.65
2022-12-03T13:24:27.952Z,54.78
2022-12-03T13:26:55.156Z,50.72
2022-12-03T13:29:25.676Z,52.03
2022-12-03T13:31:52.972Z,43.00
2022-12-03T13:34:22.027Z,52.15
2022-12-03T13:36:57.103Z,46.90
2022-12-03T13:39:35.944Z,45.85
2022-12-03T13:42:27.341Z,47.13
2022-12-03T13:44:54.570Z,46.65
2022-12-03T13:47:22.657Z,48.17
2022-12-03T13:49:57.700Z,49.58
2022-12-03T13:54:53.580Z,47.67
2022-12-03T13:57:20.744Z,47.35
2022-12-03T13:59:47.872Z,47.22
2022-12-03T14:02:15.353Z,49.63
2022-12-03T14:04:42.641Z,44.40
2022-12-03T14:07:09.790Z,46.03
2022-12-03T14:09:36.971Z,46.03
2022-12-03T14:12:33.559Z,40.85
2022-12-03T14:15:01.419Z,44.95
2022-12-03T14:17:28.618Z,37.65
2022-12-03T14:19:56.249Z,37.15
2022-12-03T14:22:25.313Z,40.58
2022-12-03T14:24:53.278Z,44.72
2022-12-03T14:27:20.883Z,48.40
2022-12-03T14:29:48.455Z,39.45
2022-12-03T14:32:15.724Z,43.58
2022-12-03T14:34:43.055Z,38.80
2022-12-03T14:37:10.211Z,45.22
2022-12-03T14:39:37.668Z,45.63
2022-12-03T14:42:14.004Z,46.35
2022-12-03T14:44:51.457Z,43.92
2022-12-03T14:47:20.063Z,46.40
2022-12-03T14:49:47.264Z,45.63
2022-12-03T14:52:14.465Z,45.22
2022-12-03T14:54:44.973Z,43.20
2022-12-03T14:57:13.016Z,45.28
2022-12-03T14:59:43.744Z,51.20
2022-12-03T15:02:11.608Z,49.30
2022-12-03T15:04:39.506Z,50.35
2022-12-03T15:07:06.929Z,44.83
2022-12-03T15:09:34.146Z,43.47
2022-12-03T15:12:01.392Z,48.72
2022-12-03T15:14:28.555Z,50.83
2022-12-03T15:16:55.861Z,49.13
2022-12-03T15:19:23.076Z,48.75
2022-12-03T15:21:50.201Z,55.53
2022-12-03T15:24:17.378Z,50.55
2022-12-03T15:26:44.529Z,54.53
2022-12-03T15:29:11.715Z,54.45
2022-12-03T15:31:38.919Z,48.50
2022-12-03T15:34:06.191Z,49.90
2022-12-03T15:36:33.352Z,51.58
2022-12-03T15:39:00.544Z,54.75
2022-12-03T15:41:30.717Z,49.75
2022-12-03T15:43:58.835Z,46.20
2022-12-03T15:46:27.840Z,61.17
2022-12-03T15:48:55.808Z,49.80
2022-12-03T15:51:22.954Z,52.10
2022-12-03T15:53:50.367Z,51.00
2022-12-03T15:56:17.560Z,52.58
2022-12-03T15:58:44.896Z,50.75
2022-12-03T16:01:13.834Z,51.80
2022-12-03T16:03:41.790Z,49.67
2022-12-03T16:06:09.863Z,51.10
2022-12-03T16:08:37.136Z,49.13
2022-12-03T16:11:04.365Z,52.33
2022-12-03T16:13:31.494Z,51.83
2022-12-03T16:15:58.648Z,53.88
2022-12-03T16:18:25.840Z,49.13
2022-12-03T16:20:53.036Z,55.13
2022-12-03T16:23:20.210Z,51.22
2022-12-03T16:25:47.416Z,55.97
2022-12-03T16:28:14.770Z,50.25
2022-12-03T16:30:41.966Z,54.05
2022-12-03T16:33:09.131Z,52.47
2022-12-03T16:35:36.281Z,57.55
2022-12-03T16:38:03.414Z,56.67
2022-12-03T16:40:30.655Z,54.70
2022-12-03T16:42:57.851Z,55.55
2022-12-03T16:45:34.041Z,57.60
2022-12-03T16:48:02.393Z,52.15
2022-12-03T16:50:30.550Z,52.22
2022-12-03T16:52:58.029Z,63.63
2022-12-03T16:55:25.217Z,57.60
2022-12-03T16:57:52.375Z,63.10
2022-12-03T17:00:21.804Z,56.78
2022-12-03T17:02:49.185Z,53.92
2022-12-03T17:05:16.407Z,58.08
2022-12-03T17:07:43.657Z,58.55
2022-12-03T17:10:11.248Z,58.17
2022-12-03T17:13:07.538Z,52.33
2022-12-03T17:15:25.563Z,65.53
2022-12-03T17:17:52.705Z,53.00
2022-12-03T17:20:20.041Z,57.72
2022-12-03T17:22:47.216Z,58.60
2022-12-03T17:25:14.397Z,68.13
2022-12-03T17:27:45.150Z,62.08
2022-12-03T17:30:13.568Z,63.92
2022-12-03T17:32:41.044Z,64.63
2022-12-03T17:35:08.741Z,61.47
2022-12-03T17:37:36.009Z,60.75
2022-12-03T17:40:03.482Z,58.55
2022-12-03T17:42:30.951Z,52.25
2022-12-03T17:44:58.114Z,50.42
2022-12-03T17:47:25.279Z,60.80
2022-12-03T17:49:52.678Z,52.65
2022-12-03T17:52:19.960Z,54.53
2022-12-03T17:55:10.098Z,65.85
2022-12-03T17:57:34.207Z,60.70
2022-12-03T18:00:01.369Z,59.70
2022-12-03T18:02:28.558Z,58.53
2022-12-03T18:04:55.674Z,61.40
2022-12-03T18:07:22.807Z,54.30
2022-12-03T18:09:49.956Z,55.17
2022-12-03T18:12:17.092Z,54.15
2022-12-03T18:14:44.243Z,59.20
2022-12-03T18:17:11.387Z,54.50
2022-12-03T18:19:38.569Z,55.15
2022-12-03T18:22:05.786Z,57.70
2022-12-03T18:24:32.999Z,64.75
2022-12-03T18:27:00.163Z,58.88
2022-12-03T18:29:27.457Z,54.10
2022-12-03T18:31:54.658Z,59.22
2022-12-03T18:34:21.828Z,60.90
2022-12-03T18:36:49.607Z,56.95
2022-12-03T18:39:25.380Z,59.13
2022-12-03T18:41:53.264Z,52.97
2022-12-03T18:44:20.720Z,54.67
2022-12-03T18:46:55.410Z,63.10
2022-12-03T18:49:23.037Z,61.58
2022-12-03T18:51:54.493Z,52.40
2022-12-03T18:54:25.949Z,61.58
2022-12-03T18:56:53.096Z,57.63
2022-12-03T18:59:20.242Z,55.20
2022-12-03T19:01:47.558Z,61.15
2022-12-03T19:04:14.836Z,58.45
2022-12-03T19:06:41.971Z,61.85
2022-12-03T19:09:09.117Z,61.17
2022-12-03T19:11:36.322Z,64.45
2022-12-03T19:14:03.924Z,65.90
2022-12-03T19:16:31.452Z,65.53
2022-12-03T19:18:58.688Z,61.70
2022-12-03T19:21:30.697Z,63.92
2022-12-03T19:24:23.404Z,61.45
2022-12-03T19:26:47.903Z,68.07
2022-12-03T19:29:15.432Z,69.18
2022-12-03T19:31:42.675Z,63.75
2022-12-03T19:34:09.888Z,70.20
2022-12-03T19:36:37.040Z,74.57
2022-12-03T19:39:04.278Z,64.25
2022-12-03T19:41:31.523Z,69.32
2022-12-03T19:43:59.223Z,69.55
2022-12-03T19:46:28.800Z,74.43
2022-12-03T19:48:56.004Z,75.45
2022-12-03T19:51:38.246Z,70.50
2022-12-03T19:54:06.346Z,70.63
2022-12-03T19:56:34.068Z,77.93
2022-12-03T19:59:01.200Z,76.25
2022-12-03T20:01:29.738Z,78.60
2022-12-03T20:03:58.184Z,80.68
2022-12-03T20:06:26.626Z,70.40
2022-12-03T20:08:57.502Z,72.85
2022-12-03T20:11:25.815Z,75.40
2022-12-03T20:13:54.311Z,78.50
2022-12-03T20:16:21.652Z,73.07
2022-12-03T20:18:49.535Z,78.90
2022-12-03T20:21:17.765Z,85.95
2022-12-03T20:23:45.262Z,79.00
2022-12-03T20:26:16.785Z,75.15
2022-12-03T20:28:44.267Z,85.65
2022-12-03T20:31:13.369Z,85.05
2022-12-03T20:33:41.888Z,81.70
2022-12-03T20:36:09.714Z,86.32
2022-12-03T20:38:37.194Z,83.00
2022-12-03T20:41:05.405Z,85.25
2022-12-03T20:43:32.566Z,82.97
2022-12-03T20:46:09.656Z,77.40
2022-12-03T20:48:37.214Z,81.20
2022-12-03T20:51:05.573Z,82.85
2022-12-03T20:53:33.085Z,79.13
2022-12-03T20:56:00.827Z,80.22
2022-12-03T20:58:28.287Z,82.07
2022-12-03T21:00:55.575Z,82.55
2022-12-03T21:03:23.179Z,78.53
2022-12-03T21:05:50.411Z,74.25
2022-12-03T21:08:33.975Z,79.93
2022-12-03T21:11:07.919Z,78.47
2022-12-03T21:13:35.199Z,85.57
2022-12-03T21:16:03.487Z,76.07
2022-12-03T21:18:30.809Z,78.63
2022-12-03T21:20:59.614Z,70.35
2022-12-03T21:23:27.004Z,73.78
2022-12-03T21:25:54.167Z,72.95
2022-12-03T21:28:21.316Z,68.88
2022-12-03T21:30:48.541Z,75.13
2022-12-03T21:33:15.686Z,73.60
2022-12-03T21:35:42.804Z,69.53
2022-12-03T21:38:10.009Z,71.47
2022-12-03T21:40:37.140Z,80.22
2022-12-03T21:43:04.293Z,78.70
2022-12-03T21:45:31.449Z,80.43
2022-12-03T21:47:58.689Z,75.07
2022-12-03T21:50:25.940Z,73.30
2022-12-03T21:52:53.892Z,78.72
2022-12-03T21:55:21.035Z,79.45
2022-12-03T21:57:48.233Z,75.45
2022-12-03T22:00:15.685Z,70.00
2022-12-03T22:02:42.906Z,81.35
2022-12-03T22:05:10.674Z,70.65
2022-12-03T22:07:38.623Z,73.10
2022-12-03T22:10:06.866Z,68.90
2022-12-03T22:12:34.036Z,76.25
2022-12-03T22:15:01.169Z,68.55
2022-12-03T22:17:28.411Z,69.80
2022-12-03T22:19:55.749Z,86.10
2022-12-03T22:22:23.093Z,83.10
2022-12-03T22:24:50.215Z,73.43
2022-12-03T22:27:17.364Z,79.70
2022-12-03T22:29:44.628Z,73.78
2022-12-03T22:32:11.926Z,70.93
2022-12-03T22:34:41.012Z,80.97
2022-12-03T22:37:08.192Z,76.28
2022-12-03T22:39:35.470Z,71.63
2022-12-03T22:42:02.649Z,84.88
2022-12-03T22:44:29.884Z,74.78
2022-12-03T22:46:57.063Z,74.00
2022-12-03T22:49:24.202Z,75.43
2022-12-03T22:51:51.351Z,77.18
2022-12-03T22:54:23.732Z,71.55
2022-12-03T22:56:51.369Z,81.97
2022-12-03T22:59:18.575Z,70.78
2022-12-03T23:01:45.798Z,69.65
2022-12-03T23:04:13.077Z,66.80
2022-12-03T23:06:40.788Z,78.43
2022-12-03T23:09:08.386Z,70.10
2022-12-03T23:11:35.649Z,67.30
2022-12-03T23:14:03.218Z,79.50
2022-12-03T23:16:31.946Z,78.57
2022-12-03T23:18:59.731Z,66.05
2022-12-03T23:21:30.475Z,65.22
2022-12-03T23:23:58.848Z,79.22
2022-12-03T23:26:26.264Z,75.45
2022-12-03T23:28:53.456Z,69.57
2022-12-03T23:31:28.533Z,70.32
2022-12-03T23:33:56.560Z,74.88
2022-12-03T23:36:24.672Z,73.75
2022-12-03T23:38:51.994Z,81.35
2022-12-03T23:41:20.329Z,67.35
2022-12-03T23:43:47.737Z,71.65
2022-12-03T23:46:16.141Z,75.65
2022-12-03T23:48:43.443Z,83.68
2022-12-03T23:51:14.779Z,73.80
2022-12-03T23:53:42.479Z,75.40
2022-12-03T23:56:11.325Z,82.22
2022-12-03T23:58:38.745Z,74.63
